Time;durP1;ratioP1;P1;durP2;ratioP2;P2;SDS_P1;SDS_P2;PMS_P1;PMS_P2;Temp;Humidity;BMP_temperature;BMP_pressure;BME280_temperature;BME280_humidity;BME280_pressure;Samples;Min_cycle;Max_cycle;Signal;HPM_P1;HPM_P2
2021/03/05 00:01:03;;;;;;;41.20;27.55;;;10.00;64.00;;;;;;5073608;28;20039;-71
2021/03/05 00:03:29;;;;;;;37.75;26.58;;;10.00;64.20;;;;;;5053675;28;20090;-70
2021/03/05 00:05:55;;;;;;;39.35;27.33;;;10.00;64.00;;;;;;5051176;28;20459;-70
2021/03/05 00:08:21;;;;;;;41.78;27.85;;;10.00;63.80;;;;;;5054006;28;20045;-69
2021/03/05 00:10:47;;;;;;;41.13;27.77;;;10.10;63.80;;;;;;5055140;28;20463;-68
2021/03/05 00:13:14;;;;;;;42.67;28.40;;;10.10;64.00;;;;;;5051812;28;20041;-68
2021/03/05 00:15:43;;;;;;;39.78;27.20;;;10.10;64.00;;;;;;5053296;28;20036;-72
2021/03/05 00:18:09;;;;;;;39.53;27.17;;;10.20;64.00;;;;;;5068653;28;20032;-69
2021/03/05 00:20:38;;;;;;;36.58;26.65;;;10.20;63.90;;;;;;5072399;28;20024;-68
2021/03/05 00:23:04;;;;;;;48.63;30.48;;;10.20;64.10;;;;;;5060826;28;20032;-68
2021/03/05 00:25:30;;;;;;;46.42;28.80;;;10.30;64.40;;;;;;5072603;28;20035;-68
2021/03/05 00:27:56;;;;;;;47.63;30.50;;;10.10;64.70;;;;;;5071952;28;20037;-68
2021/03/05 00:30:23;;;;;;;46.13;29.13;;;10.10;64.80;;;;;;5073047;28;20016;-68
2021/03/05 00:32:48;;;;;;;46.22;29.00;;;10.00;64.60;;;;;;5073005;28;20044;-68
2021/03/05 00:35:16;;;;;;;46.75;30.05;;;10.00;64.70;;;;;;5072802;28;20027;-68
2021/03/05 00:37:43;;;;;;;47.92;29.90;;;10.00;64.60;;;;;;5071603;28;20158;-69
2021/03/05 00:40:12;;;;;;;47.88;29.70;;;10.10;64.30;;;;;;5072867;28;20025;-69
2021/03/05 00:42:40;;;;;;;47.53;29.88;;;10.10;63.50;;;;;;5072362;28;20112;-69
2021/03/05 00:45:08;;;;;;;47.58;29.40;;;10.00;64.20;;;;;;5072397;28;20074;-68
2021/03/05 00:47:34;;;;;;;48.42;29.38;;;10.00;65.20;;;;;;5073141;28;20024;-68
2021/03/05 00:50:00;;;;;;;47.75;30.13;;;10.00;65.40;;;;;;5072381;28;20093;-68
2021/03/05 00:52:25;;;;;;;46.88;29.05;;;10.10;65.40;;;;;;5072526;28;20042;-71
2021/03/05 00:54:51;;;;;;;46.65;28.80;;;10.10;65.40;;;;;;5072853;28;20036;-68
2021/03/05 00:57:17;;;;;;;46.65;30.08;;;10.10;65.30;;;;;;5071752;28;20028;-67
2021/03/05 00:59:43;;;;;;;45.63;29.13;;;10.20;65.50;;;;;;5072164;28;20036;-68
2021/03/05 01:02:08;;;;;;;45.28;28.63;;;10.10;65.80;;;;;;5072953;28;20056;-69
2021/03/05 01:04:34;;;;;;;44.92;28.55;;;10.00;66.90;;;;;;5072108;28;20041;-68
2021/03/05 01:07:00;;;;;;;44.40;28.23;;;10.00;67.50;;;;;;5070875;28;20066;-67
2021/03/05 01:09:26;;;;;;;45.45;28.38;;;10.00;67.70;;;;;;5072877;28;20028;-71
2021/03/05 01:11:51;;;;;;;46.72;28.75;;;10.00;68.20;;;;;;5072651;28;20029;-73
2021/03/05 01:14:17;;;;;;;47.90;29.38;;;9.80;68.60;;;;;;5072012;28;20114;-71
2021/03/05 01:16:43;;;;;;;48.05;29.27;;;9.80;69.20;;;;;;5072450;28;20040;-69
2021/03/05 01:19:10;;;;;;;46.90;29.38;;;9.80;69.00;;;;;;5072814;28;20111;-68
2021/03/05 01:21:36;;;;;;;47.70;29.25;;;9.90;67.20;;;;;;5072638;28;20028;-68
2021/03/05 01:24:03;;;;;;;47.35;29.08;;;9.90;66.50;;;;;;5072970;28;20039;-69
2021/03/05 01:26:28;;;;;;;47.75;29.35;;;9.90;67.00;;;;;;5071132;28;20028;-72
2021/03/05 01:28:54;;;;;;;41.35;27.45;;;9.90;63.70;;;;;;5074301;28;20028;-73
2021/03/05 01:31:20;;;;;;;41.95;27.90;;;10.00;63.30;;;;;;5075209;28;20060;-72
2021/03/05 01:33:46;;;;;;;35.10;26.10;;;10.10;62.40;;;;;;5075459;28;20060;-68
2021/03/05 01:36:11;;;;;;;35.78;26.05;;;9.90;63.80;;;;;;5072148;28;20458;-73
2021/03/05 01:38:38;;;;;;;41.78;27.77;;;9.90;64.20;;;;;;5072943;28;20419;-69
2021/03/05 01:41:04;;;;;;;41.13;27.42;;;9.80;64.20;;;;;;5073181;28;20032;-70
2021/03/05 01:43:32;;;;;;;34.08;25.98;;;9.80;63.80;;;;;;5072528;28;20028;-71
2021/03/05 01:45:59;;;;;;;35.13;26.52;;;9.80;63.70;;;;;;5071770;28;20132;-70
2021/03/05 01:48:25;;;;;;;31.65;25.20;;;9.90;62.90;;;;;;5072461;28;20036;-68
2021/03/05 01:51:00;;;;;;;31.38;25.50;;;9.90;62.90;;;;;;5073219;28;20032;-69
2021/03/05 01:53:28;;;;;;;32.70;25.88;;;9.90;62.70;;;;;;5068054;28;20059;-71
2021/03/05 01:55:54;;;;;;;33.88;26.02;;;9.80;62.60;;;;;;5072630;28;20055;-71
2021/03/05 01:58:22;;;;;;;35.97;26.50;;;9.80;63.40;;;;;;5072661;28;20016;-69
2021/03/05 02:00:56;;;;;;;39.88;26.77;;;9.80;64.30;;;;;;5072906;28;20037;-70
2021/03/05 02:03:22;;;;;;;42.58;27.80;;;9.80;63.30;;;;;;5072369;28;20033;-70
2021/03/05 02:05:48;;;;;;;41.58;27.55;;;9.80;63.30;;;;;;5073013;28;20343;-70
2021/03/05 02:08:14;;;;;;;36.75;26.98;;;9.90;62.80;;;;;;5072334;28;20430;-71
2021/03/05 02:10:40;;;;;;;32.65;25.55;;;10.00;62.10;;;;;;5073027;28;20028;-71
2021/03/05 02:13:07;;;;;;;34.03;25.90;;;10.10;61.70;;;;;;5072587;28;20466;-69
2021/03/05 02:15:38;;;;;;;33.38;25.77;;;10.20;62.00;;;;;;5073425;28;20394;-70
2021/03/05 02:18:13;;;;;;;48.85;29.50;;;10.10;61.20;;;;;;5076694;28;20020;-71
2021/03/05 02:20:38;;;;;;;49.15;29.52;;;10.10;61.30;;;;;;5076631;28;20065;-70
2021/03/05 02:23:27;;;;;;;48.85;29.38;;;10.10;62.10;;;;;;5075789;28;20045;-70
2021/03/05 02:26:23;;;;;;;47.88;29.02;;;10.00;62.10;;;;;;5076232;28;20028;-70
2021/03/05 02:29:33;;;;;;;47.65;28.95;;;10.10;62.50;;;;;;5076518;28;20032;-72
2021/03/05 02:32:06;;;;;;;46.58;28.65;;;10.10;62.10;;;;;;4986207;28;20042;-70
2021/03/05 02:34:35;;;;;;;43.05;27.92;;;10.10;62.10;;;;;;4994626;28;20046;-71
2021/03/05 02:37:10;;;;;;;41.47;27.58;;;10.10;61.80;;;;;;4977921;28;20073;-70
2021/03/05 02:39:51;;;;;;;36.85;26.55;;;10.10;61.90;;;;;;4978353;28;20057;-70
2021/03/05 02:42:31;;;;;;;36.88;26.75;;;10.10;62.10;;;;;;4994533;28;20089;-69
2021/03/05 02:45:03;;;;;;;33.47;25.35;;;10.10;62.20;;;;;;4994270;28;20129;-71
2021/03/05 02:47:32;;;;;;;43.60;28.15;;;10.00;61.90;;;;;;4994490;28;20041;-70
2021/03/05 02:49:58;;;;;;;34.60;25.90;;;9.90;61.70;;;;;;4994532;28;20058;-70
2021/03/05 02:52:26;;;;;;;37.25;26.90;;;9.90;61.50;;;;;;4994191;28;20099;-69
2021/03/05 02:54:58;;;;;;;32.92;25.45;;;9.90;61.60;;;;;;4994523;28;20583;-70
2021/03/05 02:57:28;;;;;;;29.00;24.70;;;9.90;61.50;;;;;;4994031;28;20050;-70
2021/03/05 02:59:56;;;;;;;29.83;24.73;;;9.90;61.80;;;;;;4994454;28;20034;-70
2021/03/05 03:02:26;;;;;;;39.45;27.38;;;9.90;61.20;;;;;;4994187;28;20405;-69
2021/03/05 03:04:55;;;;;;;35.35;26.13;;;9.90;61.10;;;;;;4994006;28;20046;-69
2021/03/05 03:07:21;;;;;;;39.45;27.02;;;9.90;61.10;;;;;;4994062;28;20030;-69
2021/03/05 03:09:48;;;;;;;39.63;27.15;;;9.90;61.50;;;;;;5057537;28;20060;-69
2021/03/05 03:12:16;;;;;;;40.00;27.15;;;9.80;61.10;;;;;;5074607;28;20037;-69
2021/03/05 03:14:44;;;;;;;42.42;27.73;;;9.90;61.40;;;;;;5075546;28;20021;-69
2021/03/05 03:17:11;;;;;;;40.35;27.23;;;9.80;61.30;;;;;;5073905;28;20036;-69
2021/03/05 03:19:39;;;;;;;42.17;27.83;;;9.80;61.40;;;;;;5075012;28;20454;-68
2021/03/05 03:22:05;;;;;;;38.88;26.83;;;9.70;62.00;;;;;;5075679;28;20074;-69
2021/03/05 03:24:34;;;;;;;36.63;26.42;;;9.70;61.90;;;;;;5075504;28;20112;-69
2021/03/05 03:26:59;;;;;;;42.22;27.63;;;9.70;61.80;;;;;;5075104;28;20101;-69
2021/03/05 03:29:26;;;;;;;39.53;27.42;;;9.60;61.80;;;;;;5074873;28;20048;-69
2021/03/05 03:31:53;;;;;;;37.33;26.77;;;9.60;61.60;;;;;;5075100;28;20052;-69
2021/03/05 03:34:20;;;;;;;47.35;28.85;;;9.60;61.70;;;;;;5074914;28;20382;-69
2021/03/05 03:36:47;;;;;;;47.95;28.98;;;9.60;61.60;;;;;;5074419;28;20025;-70
2021/03/05 03:39:14;;;;;;;48.50;29.60;;;9.60;62.00;;;;;;5074917;28;20227;-69
2021/03/05 03:41:40;;;;;;;46.97;28.50;;;9.50;62.30;;;;;;5074916;28;20060;-70
2021/03/05 03:44:08;;;;;;;47.67;28.98;;;9.50;62.30;;;;;;5075355;28;20024;-69
2021/03/05 03:46:38;;;;;;;46.78;28.67;;;9.60;62.30;;;;;;5074514;28;20429;-69
2021/03/05 03:49:09;;;;;;;44.42;27.95;;;9.40;63.70;;;;;;5073734;28;20359;-70
2021/03/05 03:51:41;;;;;;;39.45;27.30;;;9.20;64.70;;;;;;5075072;28;20058;-70
2021/03/05 03:54:12;;;;;;;41.95;27.63;;;9.00;67.20;;;;;;5074561;28;20419;-69
2021/03/05 03:56:39;;;;;;;37.92;26.88;;;8.90;69.10;;;;;;5073714;28;20070;-69
2021/03/05 03:59:05;;;;;;;46.47;28.60;;;8.70;70.30;;;;;;5074807;28;20117;-69
2021/03/05 04:01:32;;;;;;;46.67;28.48;;;8.60;72.70;;;;;;5073817;28;20106;-70
2021/03/05 04:04:01;;;;;;;45.97;28.30;;;8.50;74.90;;;;;;5074468;28;20017;-68
2021/03/05 04:06:28;;;;;;;47.83;28.80;;;8.50;78.50;;;;;;5073323;28;20029;-70
2021/03/05 04:08:54;;;;;;;47.83;29.00;;;8.60;75.20;;;;;;5073939;28;20036;-69
2021/03/05 04:11:21;;;;;;;47.80;28.88;;;8.70;72.10;;;;;;5074182;28;20025;-69
2021/03/05 04:13:48;;;;;;;47.90;29.00;;;8.80;69.10;;;;;;5074087;28;20029;-69
2021/03/05 04:16:14;;;;;;;44.33;28.13;;;8.90;68.10;;;;;;5072832;28;20028;-69
2021/03/05 04:18:40;;;;;;;42.28;27.67;;;8.90;67.30;;;;;;5074430;28;20520;-71
2021/03/05 04:21:12;;;;;;;43.30;28.45;;;9.00;66.80;;;;;;5073487;28;20029;-70
2021/03/05 04:23:38;;;;;;;43.58;28.27;;;9.00;66.30;;;;;;5073082;28;20056;-70
2021/03/05 04:26:04;;;;;;;40.50;27.77;;;9.10;66.00;;;;;;5074195;28;20039;-71
2021/03/05 04:28:30;;;;;;;40.85;27.85;;;9.10;65.50;;;;;;5073699;28;20017;-69
2021/03/05 04:30:56;;;;;;;50.55;29.58;;;9.20;65.20;;;;;;5073953;28;20033;-69
2021/03/05 04:33:22;;;;;;;50.75;29.75;;;9.20;64.80;;;;;;5073777;28;20045;-70
2021/03/05 04:35:48;;;;;;;50.75;29.65;;;9.30;64.80;;;;;;5073583;28;20040;-69
2021/03/05 04:38:14;;;;;;;51.53;29.70;;;9.30;65.60;;;;;;5073006;28;20032;-70
2021/03/05 04:40:39;;;;;;;51.83;29.90;;;9.20;66.20;;;;;;5074225;28;20036;-70
2021/03/05 04:43:05;;;;;;;51.47;29.92;;;9.10;67.50;;;;;;5071662;28;20059;-69
2021/03/05 04:45:31;;;;;;;50.05;29.50;;;8.90;69.20;;;;;;5070051;28;20036;-69
2021/03/05 04:47:56;;;;;;;48.28;28.75;;;8.90;70.50;;;;;;5072777;28;20017;-70
2021/03/05 04:50:22;;;;;;;47.55;29.00;;;8.80;72.40;;;;;;5072456;28;20024;-69
2021/03/05 04:52:48;;;;;;;47.63;28.80;;;8.60;74.10;;;;;;5073533;28;20459;-70
2021/03/05 04:55:14;;;;;;;41.03;27.23;;;8.50;86.00;;;;;;5073380;28;20174;-70
2021/03/05 04:57:40;;;;;;;38.40;27.00;;;8.50;88.90;;;;;;5073313;28;20028;-70
2021/03/05 05:00:06;;;;;;;33.58;25.83;;;8.40;90.10;;;;;;5073599;28;20020;-72
2021/03/05 05:02:32;;;;;;;39.60;27.15;;;8.50;91.60;;;;;;5073167;28;20031;-68
2021/03/05 05:04:57;;;;;;;42.92;28.35;;;8.60;76.80;;;;;;5073188;28;20036;-70
2021/03/05 05:07:23;;;;;;;37.30;27.08;;;8.70;72.90;;;;;;5073134;28;20060;-70
2021/03/05 05:09:49;;;;;;;38.17;26.92;;;8.80;74.10;;;;;;5071885;28;20035;-68
2021/03/05 05:12:14;;;;;;;36.53;26.70;;;8.60;76.30;;;;;;5073185;28;20370;-68
2021/03/05 05:14:40;;;;;;;40.25;27.38;;;8.60;81.30;;;;;;5073383;28;20040;-69
2021/03/05 05:17:06;;;;;;;36.80;27.02;;;8.50;89.10;;;;;;5072665;28;20025;-73
2021/03/05 05:19:32;;;;;;;36.45;26.48;;;8.50;90.60;;;;;;5072992;28;20112;-71
2021/03/05 05:21:58;;;;;;;36.30;26.55;;;8.40;84.10;;;;;;5073036;28;20020;-69
2021/03/05 05:24:24;;;;;;;36.83;26.98;;;8.50;79.70;;;;;;5073478;28;20046;-71
2021/03/05 05:26:49;;;;;;;40.35;27.92;;;8.50;78.60;;;;;;5072999;28;20119;-71
2021/03/05 05:29:15;;;;;;;39.05;27.48;;;8.50;78.60;;;;;;5072713;28;20104;-71
2021/03/05 05:31:41;;;;;;;36.72;26.48;;;8.50;78.90;;;;;;5071873;28;20539;-76
2021/03/05 05:34:06;;;;;;;37.97;26.75;;;8.20;80.60;;;;;;5072630;28;20497;-73
2021/03/05 05:36:32;;;;;;;43.03;28.13;;;8.20;81.90;;;;;;5072835;28;20020;-72
2021/03/05 05:38:58;;;;;;;43.33;28.23;;;8.00;82.00;;;;;;5071249;28;20100;-71
2021/03/05 05:41:24;;;;;;;42.78;28.25;;;8.10;81.20;;;;;;5071038;28;20036;-69
2021/03/05 05:43:50;;;;;;;44.45;28.52;;;8.10;79.90;;;;;;5071247;28;20568;-70
2021/03/05 05:46:19;;;;;;;44.47;28.33;;;8.00;80.50;;;;;;5070433;28;20059;-69
2021/03/05 05:48:48;;;;;;;44.67;28.77;;;8.20;79.10;;;;;;5068209;28;20020;-69
2021/03/05 05:51:27;;;;;;;44.45;28.27;;;8.40;77.20;;;;;;5076909;28;20033;-68
2021/03/05 05:54:00;;;;;;;44.15;28.42;;;8.50;76.70;;;;;;5074669;28;20081;-69
2021/03/05 05:56:26;;;;;;;44.35;28.42;;;8.60;74.90;;;;;;5076631;28;20402;-69
2021/03/05 05:58:52;;;;;;;43.80;28.25;;;8.50;74.60;;;;;;5075717;28;20017;-69
2021/03/05 06:01:18;;;;;;;43.58;28.13;;;8.40;75.90;;;;;;5076404;28;20075;-69
2021/03/05 06:03:44;;;;;;;42.22;27.83;;;8.50;78.00;;;;;;5075682;28;20466;-69
2021/03/05 06:06:13;;;;;;;41.20;27.63;;;8.40;76.90;;;;;;5075241;28;20028;-70
2021/03/05 06:08:39;;;;;;;39.63;27.17;;;8.50;76.10;;;;;;5076617;28;20378;-70
2021/03/05 06:11:05;;;;;;;39.85;27.20;;;8.50;74.70;;;;;;5076088;28;20024;-70
2021/03/05 06:13:31;;;;;;;40.50;27.40;;;8.60;75.80;;;;;;5076028;28;20040;-69
2021/03/05 06:16:29;;;;;;;36.58;26.88;;;8.70;76.00;;;;;;5076653;28;20086;-70
2021/03/05 06:18:55;;;;;;;33.00;25.55;;;8.80;75.90;;;;;;4994658;28;20751;-69
2021/03/05 06:21:40;;;;;;;35.90;26.13;;;8.70;76.30;;;;;;4994739;28;20034;-69
2021/03/05 06:24:09;;;;;;;38.90;27.02;;;8.80;77.10;;;;;;4994471;28;20061;-68
2021/03/05 06:26:53;;;;;;;41.05;27.48;;;8.70;77.30;;;;;;4994753;28;20036;-72
2021/03/05 06:29:26;;;;;;;42.80;28.02;;;8.70;76.60;;;;;;4994730;28;20121;-70
2021/03/05 06:31:59;;;;;;;43.08;27.98;;;8.80;77.00;;;;;;4994647;28;20026;-69
2021/03/05 06:34:26;;;;;;;43.10;28.08;;;8.90;76.00;;;;;;4994405;28;20535;-69
2021/03/05 06:36:58;;;;;;;43.40;28.20;;;9.20;74.20;;;;;;4994323;28;20078;-70
2021/03/05 06:39:25;;;;;;;42.25;27.65;;;9.30;75.60;;;;;;4994426;28;20046;-69
2021/03/05 06:41:59;;;;;;;41.83;27.88;;;9.50;74.70;;;;;;4994531;28;20114;-69
2021/03/05 06:44:24;;;;;;;40.03;27.20;;;9.70;74.70;;;;;;4994590;28;20077;-70
2021/03/05 06:46:50;;;;;;;36.30;26.48;;;9.80;74.40;;;;;;4994250;28;20031;-69
2021/03/05 06:49:18;;;;;;;34.50;25.83;;;9.90;73.20;;;;;;4994492;28;20104;-69
2021/03/05 06:51:56;;;;;;;35.25;26.77;;;10.00;71.40;;;;;;4994092;28;20031;-69
2021/03/05 06:54:29;;;;;;;36.95;26.83;;;10.20;70.80;;;;;;5016983;28;20045;-69
2021/03/05 06:56:55;;;;;;;;;;;10.50;70.50;;;;;;5076521;28;20028;-70
2021/03/05 06:59:23;;;;;;;34.70;26.00;;;10.70;69.60;;;;;;5075575;28;19912;-70
2021/03/05 07:01:56;;;;;;;26.52;23.63;;;10.80;70.40;;;;;;5075235;28;20041;-70
2021/03/05 07:04:25;;;;;;;;;;;11.10;69.40;;;;;;5076190;28;20039;-71
2021/03/05 07:06:57;;;;;;;31.13;24.85;;;11.30;68.10;;;;;;5075645;28;19905;-69
2021/03/05 07:09:26;;;;;;;31.45;25.33;;;11.60;66.50;;;;;;5075417;28;20127;-71
2021/03/05 07:11:53;;;;;;;32.00;25.15;;;11.60;65.50;;;;;;5075603;28;20037;-70
2021/03/05 07:14:24;;;;;;;33.50;25.63;;;11.90;68.10;;;;;;5075601;28;20044;-70
2021/03/05 07:16:50;;;;;;;38.17;27.00;;;12.00;66.70;;;;;;5075767;28;20032;-70
2021/03/05 07:19:20;;;;;;;33.55;25.77;;;12.10;72.00;;;;;;5075498;28;20028;-70
2021/03/05 07:21:48;;;;;;;29.52;24.90;;;12.00;74.00;;;;;;5075378;28;20050;-70
2021/03/05 07:24:18;;;;;;;37.22;26.58;;;11.80;75.60;;;;;;5075638;28;20060;-70
2021/03/05 07:26:52;;;;;;;32.30;25.35;;;11.90;72.30;;;;;;5061703;28;20029;-69
2021/03/05 07:29:21;;;;;;;50.50;30.98;;;11.90;71.90;;;;;;5075541;28;20033;-71
2021/03/05 07:32:01;;;;;;;43.92;28.88;;;11.80;70.50;;;;;;5075468;28;20029;-70
2021/03/05 07:34:29;;;;;;;36.45;26.42;;;12.00;70.20;;;;;;5073700;28;20064;-69
2021/03/05 07:36:58;;;;;;;40.58;27.65;;;12.10;71.60;;;;;;5074092;28;20505;-69
2021/03/05 07:39:30;;;;;;;40.55;27.75;;;12.30;69.30;;;;;;5074914;28;20036;-70
2021/03/05 07:41:56;;;;;;;39.65;27.55;;;12.60;68.50;;;;;;5074754;28;20029;-69
2021/03/05 07:44:23;;;;;;;41.50;27.92;;;12.70;68.00;;;;;;5074797;28;20520;-69
2021/03/05 07:46:50;;;;;;;52.35;31.55;;;12.80;69.60;;;;;;5075113;28;20044;-69
2021/03/05 07:49:17;;;;;;;41.58;28.38;;;13.00;69.70;;;;;;5074339;28;20021;-69
2021/03/05 07:51:43;;;;;;;50.58;31.35;;;13.00;70.80;;;;;;5070079;28;20108;-69
2021/03/05 07:54:09;;;;;;;48.92;31.02;;;13.10;69.30;;;;;;5057871;28;20099;-70
2021/03/05 07:56:43;;;;;;;29.90;24.23;;;13.20;66.10;;;;;;5054764;28;20021;-70
2021/03/05 07:59:09;;;;;;;29.13;25.25;;;13.20;66.10;;;;;;5056024;28;20020;-70
2021/03/05 08:01:50;;;;;;;29.35;24.55;;;13.20;65.30;;;;;;5054059;28;20174;-71
2021/03/05 08:04:16;;;;;;;30.85;25.73;;;13.30;66.40;;;;;;5054353;28;20040;-69
2021/03/05 08:06:42;;;;;;;;;;;13.50;66.50;;;;;;5053832;28;20391;-69
2021/03/05 08:09:08;;;;;;;;;;;13.60;61.90;;;;;;5070762;28;19904;-70
2021/03/05 08:11:36;;;;;;;;;;;13.70;63.00;;;;;;5074879;28;20423;-70
2021/03/05 08:14:21;;;;;;;;;;;13.90;63.70;;;;;;5072079;28;20004;-70
2021/03/05 08:16:47;;;;;;;;;;;14.00;61.40;;;;;;5064872;28;19915;-71
2021/03/05 08:19:14;;;;;;;;;;;14.20;60.60;;;;;;5068993;28;19958;-70
2021/03/05 08:21:53;;;;;;;;;;;14.30;61.20;;;;;;5053603;28;19908;-70
2021/03/05 08:24:26;;;;;;;;;;;14.40;61.80;;;;;;5053524;28;19916;-70
2021/03/05 08:26:57;;;;;;;;;;;14.60;60.10;;;;;;5063690;28;19904;-69
2021/03/05 08:29:42;;;;;;;;;;;14.70;63.00;;;;;;5074242;28;19916;-70
2021/03/05 08:32:27;;;;;;;;;;;14.70;64.10;;;;;;5060935;28;19962;-70
2021/03/05 08:34:53;;;;;;;;;;;14.80;61.70;;;;;;5055682;28;19952;-70
2021/03/05 08:37:28;;;;;;;;;;;14.90;60.30;;;;;;5072408;28;19959;-71
2021/03/05 08:40:12;;;;;;;;;;;15.00;58.90;;;;;;5073212;28;19908;-69
2021/03/05 08:42:40;;;;;;;;;;;15.30;58.70;;;;;;5061528;28;20274;-70
2021/03/05 08:45:17;;;;;;;;;;;15.40;53.50;;;;;;5074428;28;19904;-69
2021/03/05 08:47:44;;;;;;;;;;;15.60;52.70;;;;;;5061509;28;19904;-68
2021/03/05 08:50:10;;;;;;;;;;;15.90;50.60;;;;;;5073915;28;19963;-68
2021/03/05 08:52:35;;;;;;;;;;;16.00;48.70;;;;;;5073682;28;20313;-69
2021/03/05 08:55:05;;;;;;;;;;;15.90;47.80;;;;;;5073848;28;19970;-68
2021/03/05 08:57:38;;;;;;;;;;;16.00;48.00;;;;;;5073588;28;19909;-68
2021/03/05 09:00:04;;;;;;;;;;;15.80;47.30;;;;;;5073753;28;19908;-69
2021/03/05 09:02:30;;;;;;;;;;;15.90;46.40;;;;;;5073835;28;19966;-70
2021/03/05 09:04:55;;;;;;;;;;;16.00;46.90;;;;;;5073911;28;19908;-70
2021/03/05 09:07:21;;;;;;;;;;;16.00;46.00;;;;;;5073143;28;19908;-70
2021/03/05 09:09:50;;;;;;;;;;;16.20;44.90;;;;;;5073218;28;20045;-71
2021/03/05 09:12:16;;;;;;;;;;;16.30;43.90;;;;;;5073478;28;20239;-70
2021/03/05 09:14:42;;;;;;;;;;;16.20;43.60;;;;;;5072858;28;20054;-69
2021/03/05 09:17:08;;;;;;;;;;;16.50;44.00;;;;;;5073803;28;20306;-70
2021/03/05 09:19:41;;;;;;;;;;;16.40;43.30;;;;;;5071448;28;20024;-70
2021/03/05 09:22:17;;;;;;;;;;;16.60;44.00;;;;;;5072002;28;19913;-69
2021/03/05 09:24:46;;;;;;;;;;;16.70;44.10;;;;;;5076082;28;20027;-69
2021/03/05 09:27:15;;;;;;;;;;;16.90;43.70;;;;;;5081106;28;20262;-69
2021/03/05 09:29:40;;;;;;;;;;;16.90;42.50;;;;;;5077314;28;19908;-70
2021/03/05 09:32:06;;;;;;;;;;;16.80;42.30;;;;;;5071343;28;20041;-69
2021/03/05 09:34:32;;;;;;;;;;;16.70;43.00;;;;;;5083324;28;19912;-68
2021/03/05 09:36:59;;;;;;;;;;;16.90;43.50;;;;;;5081023;28;20304;-70
2021/03/05 09:39:24;;;;;;;;;;;17.00;44.40;;;;;;5085925;28;20368;-70
2021/03/05 09:41:50;;;;;;;;;;;16.90;43.00;;;;;;5082791;28;19998;-70
2021/03/05 09:44:15;;;;;;;;;;;16.80;43.10;;;;;;5076632;28;19962;-71
2021/03/05 09:46:41;;;;;;;;;;;17.10;44.40;;;;;;5073790;28;20007;-70
2021/03/05 09:49:26;;;;;;;;;;;17.10;45.50;;;;;;5085130;28;20007;-69
2021/03/05 09:51:52;;;;;;;;;;;17.30;45.20;;;;;;5079823;28;19909;-69
2021/03/05 09:54:19;;;;;;;;;;;17.10;44.70;;;;;;5077969;28;19912;-69
2021/03/05 09:56:45;;;;;;;;;;;17.20;44.70;;;;;;5074252;28;19919;-69
2021/03/05 09:59:11;;;;;;;;;;;17.20;44.20;;;;;;5073326;28;19939;-69
2021/03/05 10:01:41;;;;;;;;;;;17.10;44.60;;;;;;5073164;28;19908;-68
2021/03/05 10:04:09;;;;;;;51.92;32.63;;;17.30;44.40;;;;;;5072467;28;20366;-69
2021/03/05 10:06:35;;;;;;;;;;;17.20;43.70;;;;;;5076616;28;20489;-68
2021/03/05 10:09:15;;;;;;;;;;;17.40;43.70;;;;;;5073692;28;19913;-70
2021/03/05 10:11:41;;;;;;;;;;;17.40;44.30;;;;;;5072108;28;20306;-71
2021/03/05 10:14:21;;;;;;;;;;;17.40;45.90;;;;;;5107372;28;19951;-70
2021/03/05 10:16:47;;;;;;;;;;;;;;;;;;5078127;28;19991;-70
2021/03/05 10:19:14;;;;;;;;;;;17.60;44.70;;;;;;5075847;28;19954;-70
2021/03/05 10:21:46;;;;;;;;;;;17.40;45.50;;;;;;5076902;28;19904;-69
2021/03/05 10:24:13;;;;;;;;;;;17.30;46.00;;;;;;5076942;28;19904;-72
2021/03/05 10:27:10;;;;;;;;;;;17.00;46.00;;;;;;5074038;28;19905;-71
2021/03/05 10:29:24;;;;;;;;;;;17.00;45.90;;;;;;5079391;28;19908;-72
2021/03/05 10:31:54;;;;;;;;;;;17.00;46.40;;;;;;5072617;28;20261;-71
2021/03/05 10:34:38;;;;;;;;;;;16.80;46.10;;;;;;5078475;28;19974;-70
2021/03/05 10:37:03;;;;;;;;;;;16.70;46.50;;;;;;5076875;28;20718;-69
2021/03/05 10:39:31;;;;;;;;;;;16.70;45.90;;;;;;5087149;28;19958;-69
2021/03/05 10:42:01;;;;;;;;;;;16.70;45.50;;;;;;5076537;28;19912;-70
2021/03/05 10:44:28;;;;;;;;;;;16.90;45.80;;;;;;5075876;28;19911;-72
2021/03/05 10:46:57;;;;;;;;;;;17.10;46.20;;;;;;5074832;28;19939;-68
2021/03/05 10:49:23;;;;;;;;;;;17.30;46.60;;;;;;5089525;28;19916;-69
2021/03/05 10:51:48;;;;;;;;;;;17.20;46.90;;;;;;5087614;28;20019;-67
2021/03/05 10:54:14;;;;;;;;;;;17.30;46.70;;;;;;5078975;28;19923;-67
2021/03/05 10:56:40;;;;;;;;;;;17.30;47.40;;;;;;5075646;28;20366;-67
2021/03/05 10:59:06;;;;;;;;;;;17.10;48.60;;;;;;5075699;28;20006;-68
2021/03/05 11:01:31;;;;;;;;;;;16.80;48.90;;;;;;5071036;28;19908;-68
2021/03/05 11:03:57;;;;;;;;;;;16.70;50.00;;;;;;5075027;28;20373;-69
2021/03/05 11:06:22;;;;;;;;;;;16.50;49.30;;;;;;5076219;28;19920;-67
2021/03/05 11:08:48;;;;;;;;;;;16.50;49.20;;;;;;5080773;28;19903;-67
2021/03/05 11:11:14;;;;;;;;;;;16.40;49.70;;;;;;5077999;28;19963;-71
2021/03/05 11:13:39;;;;;;;;;;;16.20;49.70;;;;;;5074577;28;20317;-67
2021/03/05 11:16:05;;;;;;;;;;;16.10;50.10;;;;;;5077284;28;19916;-68
2021/03/05 11:18:30;;;;;;;;;;;16.20;49.90;;;;;;5077546;28;19905;-68
2021/03/05 11:20:56;;;;;;;;;;;16.30;49.70;;;;;;5075397;28;20380;-68
2021/03/05 11:23:21;;;;;;;;;;;16.30;49.40;;;;;;5075104;28;20441;-68
2021/03/05 11:25:47;;;;;;;;;;;16.40;49.80;;;;;;5080926;28;19912;-69
2021/03/05 11:28:15;;;;;;;;;;;16.40;49.40;;;;;;5078588;28;19904;-69
2021/03/05 11:30:43;;;;;;;;;;;16.60;49.70;;;;;;5076292;28;19908;-68
2021/03/05 11:33:09;;;;;;;44.42;29.65;;;16.60;49.50;;;;;;5077154;28;19919;-68
2021/03/05 11:35:34;;;;;;;;;;;16.80;50.20;;;;;;5065916;28;20041;-69
2021/03/05 11:38:00;;;;;;;;;;;16.90;49.90;;;;;;5055719;28;20355;-70
2021/03/05 11:40:25;;;;;;;;;;;16.80;50.10;;;;;;5056385;28;20342;-68
2021/03/05 11:42:51;;;;;;;;;;;16.80;50.30;;;;;;5056653;28;19992;-69
2021/03/05 11:45:16;;;;;;;;;;;16.70;51.00;;;;;;5068285;28;19985;-69
2021/03/05 11:47:42;;;;;;;;;;;16.90;51.00;;;;;;5076160;28;19966;-68
2021/03/05 11:50:10;;;;;;;;;;;16.80;52.20;;;;;;5074426;28;19912;-67
2021/03/05 11:52:35;;;;;;;;;;;16.90;52.10;;;;;;5075441;28;20366;-67
2021/03/05 11:55:01;;;;;;;;;;;17.00;52.50;;;;;;5055421;28;19916;-69
2021/03/05 11:57:27;;;;;;;;;;;16.90;53.40;;;;;;5057450;28;19908;-68
2021/03/05 11:59:52;;;;;;;;;;;16.80;52.60;;;;;;5061315;28;19912;-69
2021/03/05 12:02:18;;;;;;;40.17;29.30;;;16.90;52.60;;;;;;5055698;28;20403;-68
2021/03/05 12:04:43;;;;;;;;;;;17.00;53.10;;;;;;5060279;28;20032;-68
2021/03/05 12:07:09;;;;;;;;;;;17.00;52.50;;;;;;5057157;28;20247;-68
2021/03/05 12:09:34;;;;;;;;;;;17.30;52.40;;;;;;5059196;28;20433;-68
2021/03/05 12:12:00;;;;;;;;;;;17.30;52.10;;;;;;5071100;28;19905;-67
2021/03/05 12:14:25;;;;;;;;;;;17.50;57.20;;;;;;5074574;28;19977;-68
2021/03/05 12:16:51;;;;;;;;;;;17.60;55.50;;;;;;5077778;28;20346;-67
2021/03/05 12:19:17;;;;;;;;;;;17.70;55.40;;;;;;5076378;28;19995;-69
2021/03/05 12:21:42;;;;;;;56.40;34.17;;;17.50;52.20;;;;;;5072248;28;20388;-72
2021/03/05 12:24:08;;;;;;;;;;;17.40;52.90;;;;;;5074136;28;20539;-70
2021/03/05 12:26:34;;;;;;;;;;;17.40;53.60;;;;;;5081771;28;20404;-71
2021/03/05 12:28:59;;;;;;;;;;;17.30;52.90;;;;;;5076123;28;20014;-72
2021/03/05 12:31:25;;;;;;;;;;;17.30;52.50;;;;;;5074968;28;19999;-72
2021/03/05 12:33:51;;;;;;;49.03;31.70;;;17.30;54.20;;;;;;5075936;28;20422;-74
2021/03/05 12:36:16;;;;;;;;;;;17.10;52.40;;;;;;5074416;28;20032;-70
2021/03/05 12:38:44;;;;;;;;;;;17.00;53.60;;;;;;5074576;28;19905;-69
2021/03/05 12:41:10;;;;;;;;;;;16.80;52.70;;;;;;5075003;28;19998;-69
2021/03/05 12:43:35;;;;;;;38.17;28.10;;;16.90;53.30;;;;;;5080806;28;20914;-70
2021/03/05 12:46:01;;;;;;;;;;;16.90;53.60;;;;;;5080376;28;20024;-71
2021/03/05 12:48:27;;;;;;;;;;;17.00;53.50;;;;;;5078970;28;19999;-69
2021/03/05 12:50:52;;;;;;;;;;;17.10;52.90;;;;;;5075103;28;19904;-70
2021/03/05 12:53:18;;;;;;;;;;;17.30;52.60;;;;;;5073575;28;19959;-70
2021/03/05 12:55:43;;;;;;;;;;;17.50;52.80;;;;;;5073559;28;20366;-71
2021/03/05 12:58:09;;;;;;;;;;;17.50;52.80;;;;;;5079720;28;19909;-70
2021/03/05 13:00:34;;;;;;;;;;;17.70;52.10;;;;;;5077105;28;20002;-69
2021/03/05 13:03:00;;;;;;;;;;;17.70;51.70;;;;;;5077983;28;19950;-70
2021/03/05 13:05:26;;;;;;;;;;;17.80;51.80;;;;;;5089367;28;19904;-70
2021/03/05 13:07:51;;;;;;;;;;;17.60;52.20;;;;;;5081989;28;20007;-70
2021/03/05 13:10:17;;;;;;;;;;;17.70;52.20;;;;;;5070674;28;19952;-71
2021/03/05 13:12:43;;;;;;;;;;;17.80;52.00;;;;;;5072276;28;19934;-69
2021/03/05 13:15:09;;;;;;;;;;;17.80;52.70;;;;;;5071549;28;20385;-71